sensor_id;sensor_type;location;lat;lon;timestamp;P1;durP1;ratioP1;P2;durP2;ratioP2
74492;SDS011;62978;51.094;-115.362;2022-08-25T00:05:00;9.20;;;5.20;;
74492;SDS011;62978;51.094;-115.362;2022-08-25T00:07:53;10.10;;;5.20;;
74492;SDS011;62978;51.094;-115.362;2022-08-25T00:10:51;9.80;;;6.00;;
74492;SDS011;62978;51.094;-115.362;2022-08-25T00:13:55;7.20;;;5.50;;
74492;SDS011;62978;51.094;-115.362;2022-08-25T00:16:26;7.90;;;5.10;;
74492;SDS011;62978;51.094;-115.362;2022-08-25T00:18:59;7.20;;;5.30;;
74492;SDS011;62978;51.094;-115.362;2022-08-25T00:24:18;8.20;;;5.70;;
74492;SDS011;62978;51.094;-115.362;2022-08-25T00:27:14;7.80;;;5.20;;
74492;SDS011;62978;51.094;-115.362;2022-08-25T00:29:45;9.10;;;5.40;;
74492;SDS011;62978;51.094;-115.362;2022-08-25T00:32:16;9.70;;;5.20;;
74492;SDS011;62978;51.094;-115.362;2022-08-25T00:34:57;10.00;;;5.80;;
74492;SDS011;62978;51.094;-115.362;2022-08-25T00:37:45;8.40;;;5.90;;
74492;SDS011;62978;51.094;-115.362;2022-08-25T00:40:13;8.10;;;5.30;;
74492;SDS011;62978;51.094;-115.362;2022-08-25T00:42:40;7.70;;;5.10;;
74492;SDS011;62978;51.094;-115.362;2022-08-25T00:45:22;6.20;;;4.50;;
74492;SDS011;62978;51.094;-115.362;2022-08-25T00:47:54;10.00;;;5.70;;
74492;SDS011;62978;51.094;-115.362;2022-08-25T00:57:25;10.20;;;5.70;;
74492;SDS011;62978;51.094;-115.362;2022-08-25T01:00:37;6.80;;;5.10;;
74492;SDS011;62978;51.094;-115.362;2022-08-25T01:03:32;8.80;;;5.60;;
74492;SDS011;62978;51.094;-115.362;2022-08-25T01:09:51;8.90;;;5.40;;
74492;SDS011;62978;51.094;-115.362;2022-08-25T01:12:21;10.80;;;6.00;;
74492;SDS011;62978;51.094;-115.362;2022-08-25T01:14:55;10.60;;;6.10;;
74492;SDS011;62978;51.094;-115.362;2022-08-25T01:17:49;9.00;;;6.30;;
74492;SDS011;62978;51.094;-115.362;2022-08-25T01:20:24;8.60;;;5.90;;
74492;SDS011;62978;51.094;-115.362;2022-08-25T01:23:04;9.00;;;6.10;;
74492;SDS011;62978;51.094;-115.362;2022-08-25T01:25:52;8.60;;;6.00;;
74492;SDS011;62978;51.094;-115.362;2022-08-25T01:28:41;9.50;;;6.00;;
74492;SDS011;62978;51.094;-115.362;2022-08-25T01:31:30;9.00;;;5.80;;
74492;SDS011;62978;51.094;-115.362;2022-08-25T01:33:58;9.40;;;5.90;;
74492;SDS011;62978;51.094;-115.362;2022-08-25T01:36:27;9.90;;;6.20;;
74492;SDS011;62978;51.094;-115.362;2022-08-25T01:38:58;9.50;;;6.00;;
74492;SDS011;62978;51.094;-115.362;2022-08-25T01:44:01;8.20;;;5.70;;
74492;SDS011;62978;51.094;-115.362;2022-08-25T01:46:31;7.70;;;5.80;;
74492;SDS011;62978;51.094;-115.362;2022-08-25T01:49:00;9.30;;;6.10;;
74492;SDS011;62978;51.094;-115.362;2022-08-25T01:52:22;9.40;;;5.40;;
74492;SDS011;62978;51.094;-115.362;2022-08-25T01:57:27;7.20;;;5.10;;
74492;SDS011;62978;51.094;-115.362;2022-08-25T02:00:21;8.70;;;5.90;;
74492;SDS011;62978;51.094;-115.362;2022-08-25T02:02:48;9.30;;;6.20;;
74492;SDS011;62978;51.094;-115.362;2022-08-25T02:05:21;11.40;;;6.10;;
74492;SDS011;62978;51.094;-115.362;2022-08-25T02:07:51;10.10;;;6.10;;
74492;SDS011;62978;51.094;-115.362;2022-08-25T02:10:22;7.50;;;5.30;;
74492;SDS011;62978;51.094;-115.362;2022-08-25T02:12:50;9.40;;;6.30;;
74492;SDS011;62978;51.094;-115.362;2022-08-25T02:15:21;10.60;;;5.80;;
74492;SDS011;62978;51.094;-115.362;2022-08-25T02:17:48;9.50;;;5.60;;
74492;SDS011;62978;51.094;-115.362;2022-08-25T02:20:16;9.80;;;5.70;;
74492;SDS011;62978;51.094;-115.362;2022-08-25T02:22:44;8.30;;;5.50;;
74492;SDS011;62978;51.094;-115.362;2022-08-25T02:25:18;8.60;;;5.70;;
74492;SDS011;62978;51.094;-115.362;2022-08-25T02:27:46;8.80;;;6.10;;
74492;SDS011;62978;51.094;-115.362;2022-08-25T02:30:17;10.50;;;5.80;;
74492;SDS011;62978;51.094;-115.362;2022-08-25T02:32:48;8.30;;;5.50;;
74492;SDS011;62978;51.094;-115.362;2022-08-25T02:35:16;9.40;;;5.10;;
74492;SDS011;62978;51.094;-115.362;2022-08-25T02:37:43;10.30;;;5.60;;
74492;SDS011;62978;51.094;-115.362;2022-08-25T02:40:11;9.20;;;5.60;;
74492;SDS011;62978;51.094;-115.362;2022-08-25T02:42:38;10.40;;;6.80;;
74492;SDS011;62978;51.094;-115.362;2022-08-25T02:45:06;9.40;;;5.80;;
74492;SDS011;62978;51.094;-115.362;2022-08-25T02:47:43;9.70;;;5.50;;
74492;SDS011;62978;51.094;-115.362;2022-08-25T02:50:13;9.70;;;5.90;;
74492;SDS011;62978;51.094;-115.362;2022-08-25T02:52:41;9.40;;;5.80;;
74492;SDS011;62978;51.094;-115.362;2022-08-25T02:55:18;10.10;;;5.90;;
74492;SDS011;62978;51.094;-115.362;2022-08-25T02:57:49;8.90;;;5.70;;
74492;SDS011;62978;51.094;-115.362;2022-08-25T03:00:34;10.10;;;5.40;;
74492;SDS011;62978;51.094;-115.362;2022-08-25T03:03:09;9.80;;;5.40;;
74492;SDS011;62978;51.094;-115.362;2022-08-25T03:05:37;9.50;;;5.30;;
74492;SDS011;62978;51.094;-115.362;2022-08-25T03:08:05;10.40;;;5.90;;
74492;SDS011;62978;51.094;-115.362;2022-08-25T03:10:34;8.90;;;5.30;;
74492;SDS011;62978;51.094;-115.362;2022-08-25T03:13:01;8.20;;;5.20;;
74492;SDS011;62978;51.094;-115.362;2022-08-25T03:15:48;10.10;;;5.90;;
74492;SDS011;62978;51.094;-115.362;2022-08-25T03:18:25;11.10;;;5.80;;
74492;SDS011;62978;51.094;-115.362;2022-08-25T03:20:52;10.70;;;6.80;;
74492;SDS011;62978;51.094;-115.362;2022-08-25T03:23:32;9.20;;;5.80;;
74492;SDS011;62978;51.094;-115.362;2022-08-25T03:26:00;9.90;;;6.10;;
74492;SDS011;62978;51.094;-115.362;2022-08-25T03:28:50;12.70;;;6.70;;
74492;SDS011;62978;51.094;-115.362;2022-08-25T03:31:21;10.60;;;6.20;;
74492;SDS011;62978;51.094;-115.362;2022-08-25T03:33:52;9.60;;;6.10;;
74492;SDS011;62978;51.094;-115.362;2022-08-25T03:36:29;10.30;;;6.00;;
74492;SDS011;62978;51.094;-115.362;2022-08-25T03:39:06;10.60;;;6.80;;
74492;SDS011;62978;51.094;-115.362;2022-08-25T03:41:34;11.90;;;7.10;;
74492;SDS011;62978;51.094;-115.362;2022-08-25T03:44:03;11.40;;;7.10;;
74492;SDS011;62978;51.094;-115.362;2022-08-25T03:46:38;10.50;;;7.00;;
74492;SDS011;62978;51.094;-115.362;2022-08-25T03:49:19;9.00;;;5.90;;
74492;SDS011;62978;51.094;-115.362;2022-08-25T03:54:39;9.40;;;6.20;;
74492;SDS011;62978;51.094;-115.362;2022-08-25T03:57:10;10.10;;;6.10;;
74492;SDS011;62978;51.094;-115.362;2022-08-25T03:59:37;9.60;;;5.80;;
74492;SDS011;62978;51.094;-115.362;2022-08-25T04:02:27;9.10;;;5.90;;
74492;SDS011;62978;51.094;-115.362;2022-08-25T04:04:58;10.50;;;6.10;;
74492;SDS011;62978;51.094;-115.362;2022-08-25T04:07:26;10.00;;;5.90;;
74492;SDS011;62978;51.094;-115.362;2022-08-25T04:09:54;10.70;;;6.10;;
74492;SDS011;62978;51.094;-115.362;2022-08-25T04:12:22;10.80;;;6.30;;
74492;SDS011;62978;51.094;-115.362;2022-08-25T04:14:53;11.80;;;6.10;;
74492;SDS011;62978;51.094;-115.362;2022-08-25T04:17:20;10.70;;;6.50;;
74492;SDS011;62978;51.094;-115.362;2022-08-25T04:19:48;12.10;;;6.50;;
74492;SDS011;62978;51.094;-115.362;2022-08-25T04:22:36;10.70;;;5.90;;
74492;SDS011;62978;51.094;-115.362;2022-08-25T04:25:05;10.30;;;5.80;;
74492;SDS011;62978;51.094;-115.362;2022-08-25T04:27:37;9.50;;;5.60;;
74492;SDS011;62978;51.094;-115.362;2022-08-25T04:30:05;10.40;;;5.60;;
74492;SDS011;62978;51.094;-115.362;2022-08-25T04:32:39;10.50;;;6.40;;
74492;SDS011;62978;51.094;-115.362;2022-08-25T04:35:28;8.90;;;5.80;;
74492;SDS011;62978;51.094;-115.362;2022-08-25T04:37:55;9.30;;;5.70;;
74492;SDS011;62978;51.094;-115.362;2022-08-25T04:40:55;10.70;;;5.30;;
74492;SDS011;62978;51.094;-115.362;2022-08-25T04:43:51;11.30;;;5.90;;
74492;SDS011;62978;51.094;-115.362;2022-08-25T04:46:23;9.70;;;6.00;;
74492;SDS011;62978;51.094;-115.362;2022-08-25T04:48:54;10.20;;;5.80;;
74492;SDS011;62978;51.094;-115.362;2022-08-25T04:51:30;10.00;;;5.80;;
74492;SDS011;62978;51.094;-115.362;2022-08-25T04:54:04;9.20;;;5.80;;
74492;SDS011;62978;51.094;-115.362;2022-08-25T04:56:33;9.40;;;5.90;;
74492;SDS011;62978;51.094;-115.362;2022-08-25T04:59:06;11.90;;;6.40;;
74492;SDS011;62978;51.094;-115.362;2022-08-25T05:01:39;10.30;;;5.30;;
74492;SDS011;62978;51.094;-115.362;2022-08-25T05:04:09;10.80;;;5.70;;
74492;SDS011;62978;51.094;-115.362;2022-08-25T05:06:50;14.30;;;5.70;;
74492;SDS011;62978;51.094;-115.362;2022-08-25T05:09:17;9.40;;;6.20;;
74492;SDS011;62978;51.094;-115.362;2022-08-25T05:11:45;9.50;;;6.20;;
74492;SDS011;62978;51.094;-115.362;2022-08-25T05:14:15;11.30;;;6.40;;
74492;SDS011;62978;51.094;-115.362;2022-08-25T05:16:47;11.60;;;6.10;;
74492;SDS011;62978;51.094;-115.362;2022-08-25T05:19:15;10.60;;;6.20;;
74492;SDS011;62978;51.094;-115.362;2022-08-25T05:21:42;10.10;;;6.00;;
74492;SDS011;62978;51.094;-115.362;2022-08-25T05:24:13;11.40;;;6.20;;
74492;SDS011;62978;51.094;-115.362;2022-08-25T05:26:41;10.80;;;5.70;;
74492;SDS011;62978;51.094;-115.362;2022-08-25T05:29:08;9.20;;;5.70;;
74492;SDS011;62978;51.094;-115.362;2022-08-25T05:35:22;9.90;;;5.90;;
74492;SDS011;62978;51.094;-115.362;2022-08-25T05:37:56;8.40;;;5.70;;
74492;SDS011;62978;51.094;-115.362;2022-08-25T05:40:24;10.10;;;5.50;;
74492;SDS011;62978;51.094;-115.362;2022-08-25T05:42:51;9.70;;;5.90;;
74492;SDS011;62978;51.094;-115.362;2022-08-25T05:45:19;11.80;;;5.00;;
74492;SDS011;62978;51.094;-115.362;2022-08-25T05:47:47;9.60;;;5.70;;
74492;SDS011;62978;51.094;-115.362;2022-08-25T05:50:16;9.80;;;5.70;;
74492;SDS011;62978;51.094;-115.362;2022-08-25T05:52:47;10.70;;;5.80;;
74492;SDS011;62978;51.094;-115.362;2022-08-25T05:55:15;10.60;;;6.10;;
74492;SDS011;62978;51.094;-115.362;2022-08-25T05:57:42;8.50;;;5.10;;
74492;SDS011;62978;51.094;-115.362;2022-08-25T06:00:10;10.30;;;6.20;;
74492;SDS011;62978;51.094;-115.362;2022-08-25T06:02:42;10.10;;;6.30;;
74492;SDS011;62978;51.094;-115.362;2022-08-25T06:05:17;10.20;;;6.00;;
74492;SDS011;62978;51.094;-115.362;2022-08-25T06:07:59;9.70;;;6.00;;
74492;SDS011;62978;51.094;-115.362;2022-08-25T06:10:50;10.20;;;5.80;;
74492;SDS011;62978;51.094;-115.362;2022-08-25T06:13:25;8.80;;;6.00;;
74492;SDS011;62978;51.094;-115.362;2022-08-25T06:15:57;11.10;;;5.70;;
74492;SDS011;62978;51.094;-115.362;2022-08-25T06:18:34;9.50;;;5.80;;
74492;SDS011;62978;51.094;-115.362;2022-08-25T06:21:14;8.30;;;5.20;;
74492;SDS011;62978;51.094;-115.362;2022-08-25T06:23:55;10.30;;;5.70;;
74492;SDS011;62978;51.094;-115.362;2022-08-25T06:26:33;9.20;;;5.40;;
74492;SDS011;62978;51.094;-115.362;2022-08-25T06:29:14;8.00;;;5.30;;
74492;SDS011;62978;51.094;-115.362;2022-08-25T06:31:42;11.60;;;6.30;;
74492;SDS011;62978;51.094;-115.362;2022-08-25T06:34:11;9.50;;;5.60;;
74492;SDS011;62978;51.094;-115.362;2022-08-25T06:36:39;9.30;;;5.80;;
74492;SDS011;62978;51.094;-115.362;2022-08-25T06:39:07;9.30;;;5.20;;
74492;SDS011;62978;51.094;-115.362;2022-08-25T06:41:36;11.00;;;5.90;;
74492;SDS011;62978;51.094;-115.362;2022-08-25T06:44:04;9.10;;;5.60;;
74492;SDS011;62978;51.094;-115.362;2022-08-25T06:46:52;11.10;;;6.70;;
74492;SDS011;62978;51.094;-115.362;2022-08-25T06:49:22;9.70;;;6.00;;
74492;SDS011;62978;51.094;-115.362;2022-08-25T06:51:53;9.20;;;5.70;;
74492;SDS011;62978;51.094;-115.362;2022-08-25T06:54:21;10.60;;;5.80;;
74492;SDS011;62978;51.094;-115.362;2022-08-25T06:56:58;10.00;;;6.20;;
74492;SDS011;62978;51.094;-115.362;2022-08-25T06:59:28;12.70;;;6.70;;
74492;SDS011;62978;51.094;-115.362;2022-08-25T07:01:56;12.40;;;6.20;;
74492;SDS011;62978;51.094;-115.362;2022-08-25T07:04:24;10.70;;;5.90;;
74492;SDS011;62978;51.094;-115.362;2022-08-25T07:06:52;9.70;;;5.60;;
74492;SDS011;62978;51.094;-115.362;2022-08-25T07:09:19;9.00;;;5.90;;
74492;SDS011;62978;51.094;-115.362;2022-08-25T07:11:50;10.90;;;6.80;;
74492;SDS011;62978;51.094;-115.362;2022-08-25T07:14:18;12.20;;;6.60;;
74492;SDS011;62978;51.094;-115.362;2022-08-25T07:16:49;10.10;;;6.50;;
74492;SDS011;62978;51.094;-115.362;2022-08-25T07:19:19;10.50;;;5.90;;
74492;SDS011;62978;51.094;-115.362;2022-08-25T07:21:51;10.30;;;6.30;;
74492;SDS011;62978;51.094;-115.362;2022-08-25T07:24:19;10.30;;;6.10;;
74492;SDS011;62978;51.094;-115.362;2022-08-25T07:26:55;10.10;;;5.80;;
74492;SDS011;62978;51.094;-115.362;2022-08-25T07:29:27;11.60;;;6.10;;
74492;SDS011;62978;51.094;-115.362;2022-08-25T07:31:58;11.80;;;6.10;;
74492;SDS011;62978;51.094;-115.362;2022-08-25T07:34:30;10.60;;;5.90;;
74492;SDS011;62978;51.094;-115.362;2022-08-25T07:37:28;11.50;;;5.90;;
74492;SDS011;62978;51.094;-115.362;2022-08-25T07:39:55;9.70;;;5.90;;
74492;SDS011;62978;51.094;-115.362;2022-08-25T07:42:25;10.80;;;6.20;;
74492;SDS011;62978;51.094;-115.362;2022-08-25T07:45:04;10.50;;;5.60;;
74492;SDS011;62978;51.094;-115.362;2022-08-25T07:47:32;9.70;;;5.60;;
74492;SDS011;62978;51.094;-115.362;2022-08-25T07:50:07;11.20;;;7.10;;
74492;SDS011;62978;51.094;-115.362;2022-08-25T07:55:38;10.10;;;5.40;;
74492;SDS011;62978;51.094;-115.362;2022-08-25T07:58:08;9.80;;;6.00;;
74492;SDS011;62978;51.094;-115.362;2022-08-25T08:00:49;10.00;;;6.10;;
74492;SDS011;62978;51.094;-115.362;2022-08-25T08:03:19;10.30;;;5.90;;
74492;SDS011;62978;51.094;-115.362;2022-08-25T08:05:50;10.60;;;6.40;;
74492;SDS011;62978;51.094;-115.362;2022-08-25T08:08:36;12.90;;;6.30;;
74492;SDS011;62978;51.094;-115.362;2022-08-25T08:11:28;9.00;;;5.80;;
74492;SDS011;62978;51.094;-115.362;2022-08-25T08:14:02;8.60;;;5.40;;
74492;SDS011;62978;51.094;-115.362;2022-08-25T08:23:15;10.30;;;5.70;;
74492;SDS011;62978;51.094;-115.362;2022-08-25T08:29:10;10.00;;;5.50;;
74492;SDS011;62978;51.094;-115.362;2022-08-25T08:31:41;8.50;;;5.20;;
74492;SDS011;62978;51.094;-115.362;2022-08-25T08:34:12;11.60;;;6.10;;
74492;SDS011;62978;51.094;-115.362;2022-08-25T08:36:40;8.80;;;4.60;;
74492;SDS011;62978;51.094;-115.362;2022-08-25T08:39:07;9.60;;;5.60;;
74492;SDS011;62978;51.094;-115.362;2022-08-25T08:45:37;10.00;;;5.70;;
74492;SDS011;62978;51.094;-115.362;2022-08-25T08:52:05;9.60;;;5.30;;
74492;SDS011;62978;51.094;-115.362;2022-08-25T08:54:59;9.50;;;6.00;;
74492;SDS011;62978;51.094;-115.362;2022-08-25T08:57:45;9.00;;;5.90;;
74492;SDS011;62978;51.094;-115.362;2022-08-25T09:00:19;8.50;;;5.40;;
74492;SDS011;62978;51.094;-115.362;2022-08-25T09:03:07;10.40;;;6.20;;
74492;SDS011;62978;51.094;-115.362;2022-08-25T09:06:19;9.00;;;5.60;;
74492;SDS011;62978;51.094;-115.362;2022-08-25T09:08:53;13.20;;;6.90;;
74492;SDS011;62978;51.094;-115.362;2022-08-25T09:18:32;9.80;;;5.70;;
74492;SDS011;62978;51.094;-115.362;2022-08-25T09:21:36;11.60;;;5.60;;
74492;SDS011;62978;51.094;-115.362;2022-08-25T09:31:46;9.90;;;5.60;;
74492;SDS011;62978;51.094;-115.362;2022-08-25T09:34:29;10.30;;;5.90;;
74492;SDS011;62978;51.094;-115.362;2022-08-25T09:36:59;11.30;;;6.40;;
74492;SDS011;62978;51.094;-115.362;2022-08-25T09:39:53;10.40;;;5.70;;
74492;SDS011;62978;51.094;-115.362;2022-08-25T09:42:48;9.20;;;5.20;;
74492;SDS011;62978;51.094;-115.362;2022-08-25T09:45:43;10.70;;;6.50;;
74492;SDS011;62978;51.094;-115.362;2022-08-25T09:51:39;10.80;;;4.50;;
74492;SDS011;62978;51.094;-115.362;2022-08-25T09:57:43;10.30;;;5.90;;
74492;SDS011;62978;51.094;-115.362;2022-08-25T10:00:33;8.10;;;4.60;;
74492;SDS011;62978;51.094;-115.362;2022-08-25T10:03:25;10.70;;;6.30;;
74492;SDS011;62978;51.094;-115.362;2022-08-25T10:09:21;8.10;;;5.00;;
74492;SDS011;62978;51.094;-115.362;2022-08-25T10:12:20;10.10;;;5.50;;
74492;SDS011;62978;51.094;-115.362;2022-08-25T10:15:18;9.20;;;5.10;;
74492;SDS011;62978;51.094;-115.362;2022-08-25T10:21:13;10.50;;;5.60;;
74492;SDS011;62978;51.094;-115.362;2022-08-25T10:23:58;10.20;;;5.80;;
74492;SDS011;62978;51.094;-115.362;2022-08-25T10:27:04;11.30;;;5.90;;
74492;SDS011;62978;51.094;-115.362;2022-08-25T10:30:22;9.30;;;5.70;;
74492;SDS011;62978;51.094;-115.362;2022-08-25T10:36:37;10.20;;;6.10;;
74492;SDS011;62978;51.094;-115.362;2022-08-25T10:40:20;9.80;;;5.90;;
74492;SDS011;62978;51.094;-115.362;2022-08-25T10:50:34;9.10;;;6.00;;
74492;SDS011;62978;51.094;-115.362;2022-08-25T10:58:23;9.30;;;5.70;;
74492;SDS011;62978;51.094;-115.362;2022-08-25T11:01:08;12.90;;;6.80;;
74492;SDS011;62978;51.094;-115.362;2022-08-25T11:03:49;12.70;;;5.60;;
74492;SDS011;62978;51.094;-115.362;2022-08-25T11:07:38;9.00;;;5.30;;
74492;SDS011;62978;51.094;-115.362;2022-08-25T11:10:16;8.30;;;5.30;;
74492;SDS011;62978;51.094;-115.362;2022-08-25T11:13:01;9.10;;;5.80;;
74492;SDS011;62978;51.094;-115.362;2022-08-25T11:16:08;9.70;;;5.50;;
74492;SDS011;62978;51.094;-115.362;2022-08-25T11:18:54;11.40;;;5.80;;
74492;SDS011;62978;51.094;-115.362;2022-08-25T11:25:30;9.20;;;5.40;;
74492;SDS011;62978;51.094;-115.362;2022-08-25T11:28:46;8.50;;;5.20;;
74492;SDS011;62978;51.094;-115.362;2022-08-25T11:31:11;9.60;;;5.60;;
74492;SDS011;62978;51.094;-115.362;2022-08-25T11:33:41;10.40;;;6.10;;
74492;SDS011;62978;51.094;-115.362;2022-08-25T11:36:30;9.60;;;6.10;;
74492;SDS011;62978;51.094;-115.362;2022-08-25T11:40:18;8.70;;;5.30;;
74492;SDS011;62978;51.094;-115.362;2022-08-25T11:50:02;9.20;;;5.70;;
74492;SDS011;62978;51.094;-115.362;2022-08-25T11:55:19;9.50;;;5.70;;
74492;SDS011;62978;51.094;-115.362;2022-08-25T11:58:28;9.00;;;5.80;;
74492;SDS011;62978;51.094;-115.362;2022-08-25T12:01:03;9.80;;;6.00;;
74492;SDS011;62978;51.094;-115.362;2022-08-25T12:06:20;10.40;;;5.30;;
74492;SDS011;62978;51.094;-115.362;2022-08-25T12:11:55;8.40;;;5.40;;
74492;SDS011;62978;51.094;-115.362;2022-08-25T12:21:32;8.80;;;5.30;;
74492;SDS011;62978;51.094;-115.362;2022-08-25T12:24:10;10.40;;;5.80;;
74492;SDS011;62978;51.094;-115.362;2022-08-25T12:42:09;9.00;;;5.40;;
74492;SDS011;62978;51.094;-115.362;2022-08-25T12:58:29;10.70;;;6.60;;
74492;SDS011;62978;51.094;-115.362;2022-08-25T13:14:55;9.30;;;5.60;;
74492;SDS011;62978;51.094;-115.362;2022-08-25T13:17:30;10.20;;;6.20;;
74492;SDS011;62978;51.094;-115.362;2022-08-25T13:20:18;11.20;;;6.00;;
74492;SDS011;62978;51.094;-115.362;2022-08-25T13:27:00;9.00;;;4.50;;
74492;SDS011;62978;51.094;-115.362;2022-08-25T13:30:30;8.20;;;3.50;;
74492;SDS011;62978;51.094;-115.362;2022-08-25T13:36:26;8.90;;;5.40;;
74492;SDS011;62978;51.094;-115.362;2022-08-25T13:39:28;7.60;;;4.60;;
74492;SDS011;62978;51.094;-115.362;2022-08-25T13:42:39;9.70;;;5.80;;
74492;SDS011;62978;51.094;-115.362;2022-08-25T13:45:13;12.40;;;6.20;;
74492;SDS011;62978;51.094;-115.362;2022-08-25T13:48:34;8.90;;;5.60;;
74492;SDS011;62978;51.094;-115.362;2022-08-25T13:51:09;10.50;;;6.30;;
74492;SDS011;62978;51.094;-115.362;2022-08-25T14:06:52;13.00;;;6.20;;
74492;SDS011;62978;51.094;-115.362;2022-08-25T14:10:00;11.20;;;5.80;;
74492;SDS011;62978;51.094;-115.362;2022-08-25T14:12:36;9.60;;;6.20;;
74492;SDS011;62978;51.094;-115.362;2022-08-25T14:18:14;10.60;;;5.80;;
74492;SDS011;62978;51.094;-115.362;2022-08-25T14:21:31;10.10;;;5.10;;
74492;SDS011;62978;51.094;-115.362;2022-08-25T14:23:58;10.00;;;5.10;;
74492;SDS011;62978;51.094;-115.362;2022-08-25T14:26:52;10.30;;;5.40;;
74492;SDS011;62978;51.094;-115.362;2022-08-25T14:29:20;9.30;;;5.90;;
74492;SDS011;62978;51.094;-115.362;2022-08-25T14:35:15;9.70;;;5.90;;
74492;SDS011;62978;51.094;-115.362;2022-08-25T14:37:46;9.00;;;5.00;;
74492;SDS011;62978;51.094;-115.362;2022-08-25T14:40:14;9.70;;;5.40;;
74492;SDS011;62978;51.094;-115.362;2022-08-25T14:42:51;11.70;;;6.30;;
74492;SDS011;62978;51.094;-115.362;2022-08-25T14:45:31;10.20;;;6.60;;
74492;SDS011;62978;51.094;-115.362;2022-08-25T14:48:07;10.50;;;6.10;;
74492;SDS011;62978;51.094;-115.362;2022-08-25T14:50:39;9.00;;;5.70;;
74492;SDS011;62978;51.094;-115.362;2022-08-25T14:53:33;11.10;;;6.00;;
74492;SDS011;62978;51.094;-115.362;2022-08-25T14:56:03;10.00;;;5.80;;
74492;SDS011;62978;51.094;-115.362;2022-08-25T14:58:31;13.30;;;7.30;;
74492;SDS011;62978;51.094;-115.362;2022-08-25T15:01:11;12.20;;;6.90;;
74492;SDS011;62978;51.094;-115.362;2022-08-25T15:03:43;11.70;;;6.60;;
74492;SDS011;62978;51.094;-115.362;2022-08-25T15:06:15;13.00;;;6.50;;
74492;SDS011;62978;51.094;-115.362;2022-08-25T15:08:44;11.10;;;6.40;;
74492;SDS011;62978;51.094;-115.362;2022-08-25T15:11:57;11.90;;;6.90;;
74492;SDS011;62978;51.094;-115.362;2022-08-25T15:14:44;9.60;;;5.40;;
74492;SDS011;62978;51.094;-115.362;2022-08-25T15:17:11;10.40;;;6.00;;
74492;SDS011;62978;51.094;-115.362;2022-08-25T15:19:51;9.20;;;5.60;;
74492;SDS011;62978;51.094;-115.362;2022-08-25T15:22:19;10.60;;;6.20;;
74492;SDS011;62978;51.094;-115.362;2022-08-25T15:24:55;10.00;;;6.00;;
74492;SDS011;62978;51.094;-115.362;2022-08-25T15:27:44;10.80;;;6.60;;
74492;SDS011;62978;51.094;-115.362;2022-08-25T15:30:29;9.60;;;6.10;;
74492;SDS011;62978;51.094;-115.362;2022-08-25T15:33:03;10.30;;;6.50;;
74492;SDS011;62978;51.094;-115.362;2022-08-25T15:35:35;10.10;;;6.00;;
74492;SDS011;62978;51.094;-115.362;2022-08-25T15:38:04;10.20;;;5.90;;
74492;SDS011;62978;51.094;-115.362;2022-08-25T15:40:32;9.90;;;6.50;;
74492;SDS011;62978;51.094;-115.362;2022-08-25T15:43:11;9.60;;;6.40;;
74492;SDS011;62978;51.094;-115.362;2022-08-25T15:45:38;8.70;;;6.20;;
74492;SDS011;62978;51.094;-115.362;2022-08-25T15:48:06;9.50;;;6.20;;
74492;SDS011;62978;51.094;-115.362;2022-08-25T15:51:03;10.00;;;6.40;;
74492;SDS011;62978;51.094;-115.362;2022-08-25T15:53:33;9.00;;;6.00;;
74492;SDS011;62978;51.094;-115.362;2022-08-25T15:56:07;9.30;;;6.30;;
74492;SDS011;62978;51.094;-115.362;2022-08-25T15:58:58;9.30;;;6.00;;
74492;SDS011;62978;51.094;-115.362;2022-08-25T16:01:37;11.30;;;7.40;;
74492;SDS011;62978;51.094;-115.362;2022-08-25T16:04:29;11.20;;;7.40;;
74492;SDS011;62978;51.094;-115.362;2022-08-25T16:07:07;10.20;;;6.40;;
74492;SDS011;62978;51.094;-115.362;2022-08-25T16:09:56;10.10;;;6.60;;
74492;SDS011;62978;51.094;-115.362;2022-08-25T16:12:25;9.90;;;6.30;;
74492;SDS011;62978;51.094;-115.362;2022-08-25T16:14:53;10.80;;;7.40;;
74492;SDS011;62978;51.094;-115.362;2022-08-25T16:17:21;10.50;;;6.50;;
74492;SDS011;62978;51.094;-115.362;2022-08-25T16:19:51;11.60;;;6.50;;
74492;SDS011;62978;51.094;-115.362;2022-08-25T16:22:51;10.40;;;7.20;;
74492;SDS011;62978;51.094;-115.362;2022-08-25T16:25:31;10.70;;;6.20;;
74492;SDS011;62978;51.094;-115.362;2022-08-25T16:28:12;10.10;;;6.30;;
74492;SDS011;62978;51.094;-115.362;2022-08-25T16:31:04;11.40;;;7.80;;
74492;SDS011;62978;51.094;-115.362;2022-08-25T16:33:41;8.80;;;6.30;;
74492;SDS011;62978;51.094;-115.362;2022-08-25T16:36:12;9.70;;;7.10;;
74492;SDS011;62978;51.094;-115.362;2022-08-25T16:38:55;9.50;;;6.70;;
74492;SDS011;62978;51.094;-115.362;2022-08-25T16:41:28;13.40;;;7.60;;
74492;SDS011;62978;51.094;-115.362;2022-08-25T16:44:01;13.20;;;7.60;;
74492;SDS011;62978;51.094;-115.362;2022-08-25T16:46:40;12.10;;;7.50;;
74492;SDS011;62978;51.094;-115.362;2022-08-25T16:49:09;10.50;;;7.50;;
74492;SDS011;62978;51.094;-115.362;2022-08-25T16:51:39;10.00;;;6.00;;
74492;SDS011;62978;51.094;-115.362;2022-08-25T16:54:08;11.10;;;7.30;;
74492;SDS011;62978;51.094;-115.362;2022-08-25T16:56:55;9.80;;;6.90;;
74492;SDS011;62978;51.094;-115.362;2022-08-25T16:59:23;11.60;;;7.40;;
74492;SDS011;62978;51.094;-115.362;2022-08-25T17:01:52;11.90;;;7.20;;
74492;SDS011;62978;51.094;-115.362;2022-08-25T17:04:20;9.80;;;6.90;;
74492;SDS011;62978;51.094;-115.362;2022-08-25T17:06:48;12.60;;;8.50;;
74492;SDS011;62978;51.094;-115.362;2022-08-25T17:09:15;10.80;;;7.40;;
74492;SDS011;62978;51.094;-115.362;2022-08-25T17:11:46;11.20;;;7.60;;
74492;SDS011;62978;51.094;-115.362;2022-08-25T17:14:16;11.20;;;8.20;;
74492;SDS011;62978;51.094;-115.362;2022-08-25T17:16:45;10.00;;;7.00;;
74492;SDS011;62978;51.094;-115.362;2022-08-25T17:19:14;10.10;;;6.40;;
74492;SDS011;62978;51.094;-115.362;2022-08-25T17:21:43;10.70;;;7.30;;
74492;SDS011;62978;51.094;-115.362;2022-08-25T17:24:12;10.90;;;7.50;;
74492;SDS011;62978;51.094;-115.362;2022-08-25T17:26:42;11.90;;;7.70;;
74492;SDS011;62978;51.094;-115.362;2022-08-25T17:29:17;11.00;;;7.60;;
74492;SDS011;62978;51.094;-115.362;2022-08-25T17:31:45;9.50;;;6.90;;
74492;SDS011;62978;51.094;-115.362;2022-08-25T17:34:14;9.50;;;7.60;;
74492;SDS011;62978;51.094;-115.362;2022-08-25T17:36:42;12.00;;;7.90;;
74492;SDS011;62978;51.094;-115.362;2022-08-25T17:39:12;12.20;;;7.60;;
74492;SDS011;62978;51.094;-115.362;2022-08-25T17:41:43;12.40;;;8.10;;
74492;SDS011;62978;51.094;-115.362;2022-08-25T17:44:11;10.90;;;7.60;;
74492;SDS011;62978;51.094;-115.362;2022-08-25T17:46:40;10.70;;;7.30;;
74492;SDS011;62978;51.094;-115.362;2022-08-25T17:49:08;13.20;;;8.40;;
74492;SDS011;62978;51.094;-115.362;2022-08-25T17:51:36;14.80;;;8.50;;
74492;SDS011;62978;51.094;-115.362;2022-08-25T17:54:04;11.50;;;8.10;;
74492;SDS011;62978;51.094;-115.362;2022-08-25T17:56:36;12.10;;;8.30;;
74492;SDS011;62978;51.094;-115.362;2022-08-25T17:59:04;11.60;;;7.90;;
74492;SDS011;62978;51.094;-115.362;2022-08-25T18:01:33;11.70;;;8.10;;
74492;SDS011;62978;51.094;-115.362;2022-08-25T18:04:02;9.80;;;7.80;;
74492;SDS011;62978;51.094;-115.362;2022-08-25T18:06:31;12.40;;;8.30;;
74492;SDS011;62978;51.094;-115.362;2022-08-25T18:08:58;9.40;;;6.20;;